Time,TemperatureF,DewpointF,PressureIn,WindDirection,WindDirectionDegrees,WindSpeedMPH,WindSpeedGustMPH,Humidity,HourlyPrecipIn,Conditions,Clouds,dailyrainin,SolarRadiationWatts/m^2,SoftwareType,DateUTC
2013-06-07 00:02:00,65.0,30.0,-100.00,South,190,5.0,5.0,27,0.00,,,0.00,0.000000,,2013-06-07 07:02:00,
2013-06-07 00:12:00,65.0,30.0,-100.00,South,190,5.0,5.0,27,0.00,,,0.00,0.000000,,2013-06-07 07:12:00,
2013-06-07 00:22:00,65.0,30.0,-100.00,South,190,5.0,5.0,27,0.00,,,0.00,0.000000,,2013-06-07 07:22:00,
2013-06-07 00:52:00,56.0,25.0,-100.00,South,178,9.0,9.0,30,0.00,,,0.00,0.000000,,2013-06-07 07:52:00,
2013-06-07 01:02:00,56.0,25.0,-100.00,South,178,9.0,9.0,30,0.00,,,0.00,0.000000,,2013-06-07 08:02:00,
2013-06-07 01:12:00,56.0,25.0,-100.00,South,178,9.0,9.0,30,0.00,,,0.00,0.000000,,2013-06-07 08:12:00,
2013-06-07 01:22:00,56.0,25.0,-100.00,South,178,9.0,9.0,30,0.00,,,0.00,0.000000,,2013-06-07 08:22:00,
2013-06-07 01:52:00,54.0,23.0,-100.00,South,183,11.0,13.0,30,0.00,,,-99.99,0.000000,,2013-06-07 08:52:00,
2013-06-07 02:02:00,54.0,23.0,-100.00,South,183,11.0,13.0,30,0.00,,,-99.99,0.000000,,2013-06-07 09:02:00,
2013-06-07 02:12:00,54.0,23.0,-100.00,South,183,11.0,13.0,30,0.00,,,-99.99,0.000000,,2013-06-07 09:12:00,
2013-06-07 02:22:00,54.0,23.0,-100.00,South,183,11.0,13.0,30,0.00,,,-99.99,0.000000,,2013-06-07 09:22:00,
2013-06-07 02:53:00,51.0,22.0,-100.00,South,190,8.0,15.0,32,0.00,,,0.00,0.000000,,2013-06-07 09:53:00,
2013-06-07 03:02:00,51.0,22.0,-100.00,South,190,8.0,15.0,32,0.00,,,0.00,0.000000,,2013-06-07 10:02:00,
2013-06-07 03:12:00,51.0,22.0,-100.00,South,190,8.0,15.0,32,0.00,,,0.00,0.000000,,2013-06-07 10:12:00,
2013-06-07 03:22:00,51.0,22.0,-100.00,South,190,8.0,15.0,32,0.00,,,0.00,0.000000,,2013-06-07 10:22:00,
2013-06-07 03:53:00,50.0,27.0,-100.00,South,185,7.0,15.0,40,0.00,,,0.00,0.000000,,2013-06-07 10:53:00,
2013-06-07 04:02:00,50.0,27.0,-100.00,South,185,7.0,15.0,40,0.00,,,0.00,0.000000,,2013-06-07 11:02:00,
2013-06-07 04:12:00,50.0,27.0,-100.00,South,185,7.0,15.0,40,0.00,,,0.00,0.000000,,2013-06-07 11:12:00,
2013-06-07 04:22:00,50.0,27.0,-100.00,South,185,7.0,15.0,40,0.00,,,0.00,0.000000,,2013-06-07 11:22:00,
2013-06-07 04:52:00,47.0,21.0,-100.00,South,173,9.0,11.0,36,0.00,,,0.00,0.000000,,2013-06-07 11:52:00,
2013-06-07 05:02:00,47.0,21.0,-100.00,South,173,9.0,11.0,36,0.00,,,0.00,0.000000,,2013-06-07 12:02:00,
2013-06-07 05:12:00,47.0,21.0,-100.00,South,173,9.0,11.0,36,0.00,,,0.00,0.000000,,2013-06-07 12:12:00,
2013-06-07 05:22:00,47.0,21.0,-100.00,South,173,9.0,11.0,36,0.00,,,0.00,0.000000,,2013-06-07 12:22:00,
2013-06-07 05:52:00,48.0,25.0,-100.00,SSW,203,6.0,13.0,41,0.00,,,0.00,0.000000,,2013-06-07 12:52:00,
2013-06-07 06:02:00,48.0,25.0,-100.00,SSW,203,6.0,13.0,41,0.00,,,0.00,0.000000,,2013-06-07 13:02:00,
2013-06-07 06:12:00,48.0,25.0,-100.00,SSW,203,6.0,13.0,41,0.00,,,0.00,0.000000,,2013-06-07 13:12:00,
2013-06-07 06:22:00,48.0,25.0,-100.00,SSW,203,6.0,13.0,41,0.00,,,0.00,0.000000,,2013-06-07 13:22:00,
2013-06-07 06:52:00,44.0,17.0,-100.00,South,175,9.0,12.0,34,0.00,,,0.00,0.000000,,2013-06-07 13:52:00,
2013-06-07 07:02:00,44.0,17.0,-100.00,South,175,9.0,12.0,34,0.00,,,0.00,0.000000,,2013-06-07 14:02:00,
2013-06-07 07:52:00,52.0,19.0,-100.00,South,184,9.0,12.0,27,-99.99,,,0.00,6.000000,,2013-06-07 14:52:00,
2013-06-07 08:02:00,52.0,19.0,-100.00,South,184,9.0,12.0,27,-99.99,,,0.00,6.000000,,2013-06-07 15:02:00,
2013-06-07 08:53:00,61.0,16.0,-100.00,South,175,5.0,16.0,17,-99.99,,,-99.99,154.000000,,2013-06-07 15:53:00,
2013-06-07 09:03:00,61.0,16.0,-100.00,South,175,5.0,16.0,17,-99.99,,,-99.99,154.000000,,2013-06-07 16:03:00,
2013-06-07 09:53:00,75.0,12.0,-100.00,NE,53,2.0,12.0,9,-99.99,,,0.00,405.000000,,2013-06-07 16:53:00,
2013-06-07 10:02:00,75.0,12.0,-100.00,NE,53,2.0,12.0,9,-99.99,,,0.00,405.000000,,2013-06-07 17:02:00,
2013-06-07 10:52:00,83.0,18.0,-100.00,NE,51,7.0,8.0,9,0.00,,,0.00,648.000000,,2013-06-07 17:52:00,
2013-06-07 11:04:00,83.0,18.0,-100.00,NE,51,7.0,8.0,9,0.00,,,0.00,648.000000,,2013-06-07 18:04:00,
2013-06-07 11:58:00,84.0,16.0,-100.00,NNW,331,10.0,18.0,8,0.00,,,0.00,875.000000,,2013-06-07 18:58:00,
2013-06-07 12:05:00,84.0,16.0,-100.00,NNW,331,10.0,18.0,8,0.00,,,0.00,875.000000,,2013-06-07 19:05:00,
2013-06-07 12:13:00,84.0,16.0,-100.00,NNW,331,10.0,18.0,8,0.00,,,0.00,875.000000,,2013-06-07 19:13:00,
2013-06-07 12:24:00,84.0,16.0,-100.00,NNW,331,10.0,18.0,8,0.00,,,0.00,875.000000,,2013-06-07 19:24:00,
2013-06-07 12:57:00,84.0,16.0,-100.00,SSW,209,11.0,20.0,8,0.00,,,0.00,1068.000000,,2013-06-07 19:57:00,
2013-06-07 13:57:00,87.0,19.0,-100.00,West,267,10.0,24.0,8,0.00,,,0.00,1123.000000,,2013-06-07 20:57:00,
2013-06-07 14:04:00,87.0,19.0,-100.00,West,267,10.0,24.0,8,0.00,,,0.00,1123.000000,,2013-06-07 21:04:00,
2013-06-07 14:14:00,87.0,19.0,-100.00,West,267,10.0,24.0,8,0.00,,,0.00,1123.000000,,2013-06-07 21:14:00,
2013-06-07 14:24:00,87.0,19.0,-100.00,West,267,10.0,24.0,8,0.00,,,0.00,1123.000000,,2013-06-07 21:24:00,
2013-06-07 15:00:00,88.0,16.0,-100.00,NNW,335,13.0,27.0,7,0.00,,,0.00,1284.000000,,2013-06-07 22:00:00,
2013-06-07 15:07:00,88.0,16.0,-100.00,NNW,335,13.0,27.0,7,0.00,,,0.00,1284.000000,,2013-06-07 22:07:00,
2013-06-07 15:59:00,90.0,18.0,-100.00,NW,318,16.0,29.0,7,0.00,,,0.00,1219.000000,,2013-06-07 22:59:00,
2013-06-07 16:05:00,90.0,18.0,-100.00,NW,318,16.0,29.0,7,0.00,,,0.00,1219.000000,,2013-06-07 23:05:00,
2013-06-07 16:22:00,90.0,18.0,-100.00,NW,318,16.0,29.0,7,0.00,,,0.00,1219.000000,,2013-06-07 23:22:00,
2013-06-07 17:01:00,89.0,17.0,-100.00,NNW,327,11.0,26.0,7,0.00,,,0.00,1263.000000,,2013-06-08 00:01:00,
2013-06-07 17:07:00,89.0,17.0,-100.00,NNW,327,11.0,26.0,7,0.00,,,0.00,1263.000000,,2013-06-08 00:07:00,
2013-06-07 18:04:00,90.0,18.0,-100.00,NW,315,14.0,26.0,7,0.00,,,0.00,1026.000000,,2013-06-08 01:04:00,
2013-06-07 19:07:00,89.0,17.0,-100.00,NW,322,14.0,26.0,7,0.00,,,0.00,935.000000,,2013-06-08 02:07:00,
2013-06-07 19:13:00,89.0,17.0,-100.00,NW,322,14.0,26.0,7,0.00,,,0.00,935.000000,,2013-06-08 02:13:00,
2013-06-07 19:24:00,89.0,17.0,-100.00,NW,322,14.0,26.0,7,0.00,,,0.00,935.000000,,2013-06-08 02:24:00,
2013-06-07 19:58:00,86.0,18.0,-100.00,NW,315,11.0,23.0,8,0.00,,,0.00,587.000000,,2013-06-08 02:58:00,
2013-06-07 20:07:00,86.0,18.0,-100.00,NW,315,11.0,23.0,8,0.00,,,0.00,587.000000,,2013-06-08 03:07:00,
2013-06-07 20:15:00,86.0,18.0,-100.00,NW,315,11.0,23.0,8,0.00,,,0.00,587.000000,,2013-06-08 03:15:00,
2013-06-07 20:25:00,86.0,18.0,-100.00,NW,315,11.0,23.0,8,0.00,,,0.00,587.000000,,2013-06-08 03:25:00,
2013-06-07 21:03:00,83.0,23.0,-100.00,WNW,289,4.0,21.0,11,0.00,,,0.00,72.000000,,2013-06-08 04:03:00,
2013-06-07 21:12:00,83.0,23.0,-100.00,WNW,289,4.0,21.0,11,0.00,,,0.00,72.000000,,2013-06-08 04:12:00,
2013-06-07 21:22:00,83.0,23.0,-100.00,WNW,289,4.0,21.0,11,0.00,,,0.00,72.000000,,2013-06-08 04:22:00,
2013-06-07 21:53:00,71.0,21.0,-100.00,West,269,5.0,15.0,15,-99.99,,,0.00,26.000000,,2013-06-08 04:53:00,
2013-06-07 22:02:00,71.0,21.0,-100.00,West,269,5.0,15.0,15,-99.99,,,0.00,26.000000,,2013-06-08 05:02:00,
2013-06-07 22:12:00,71.0,21.0,-100.00,West,269,5.0,15.0,15,-99.99,,,0.00,26.000000,,2013-06-08 05:12:00,
2013-06-07 22:22:00,71.0,21.0,-100.00,West,269,5.0,15.0,15,-99.99,,,0.00,26.000000,,2013-06-08 05:22:00,
2013-06-07 22:52:00,67.0,23.0,-100.00,West,264,6.0,8.0,19,0.00,,,0.00,0.000000,,2013-06-08 05:52:00,
2013-06-07 23:02:00,67.0,23.0,-100.00,West,264,6.0,8.0,19,0.00,,,0.00,0.000000,,2013-06-08 06:02:00,
2013-06-07 23:12:00,67.0,23.0,-100.00,West,264,6.0,8.0,19,0.00,,,0.00,0.000000,,2013-06-08 06:12:00,
2013-06-07 23:22:00,67.0,23.0,-100.00,West,264,6.0,8.0,19,0.00,,,0.00,0.000000,,2013-06-08 06:22:00,
2013-06-07 23:52:00,64.0,23.0,-100.00,South,170,5.0,9.0,21,0.00,,,0.00,0.000000,,2013-06-08 06:52:00,